TAH weather

Tanna Airport
Tafea, Vanuatu

Public forecast

Using degrees Celsius for public forecast. Weather courtesy of forecast.io.

METAR (pilot weather report)

Report is more than 2 hours old.

Retrieved 2019/06/16 06:00 UTC (3 hours ago):

NVVW 160600Z VRB03KT 9999 SCT020 BKN040 24/18 Q1014

TAF (pilot weather forecast)

Retrieved 2019/06/16 06:31 UTC (2 hours ago):

TAF NVVW 160430Z 1606/1706 12014KT 9999 FEW020 BKN040 PROB40 INTER 1606/1612 9000 -SHRA BKN018 BECMG 1608/1610 10004KT